Terminal Aerodrome Forecast
Issued by NWS Wakefield, VA

Home | Current Version | Previous Version | Text Only | Print | Product List | Glossary On
Versions: 1 2 3 4 5 6 7 8 9 10 11 12
285
FTUS41 KAKQ 242320
TAFECG
TAF
KECG 242320Z 2500/2524 12006KT P6SM SKC
     FM251000 00000KT P6SM SCT035
     FM251600 19011KT P6SM SCT070
     FM251900 20013G20KT P6SM BKN050 BKN100
     FM252200 20014G24KT 5SM SHRA BKN040=

USA.gov is the U.S. government's official web portal to all federal, state and local government web resources and services.